createdAt,value
2018-08-23T00:00:21.823Z,3.50
2018-08-23T00:01:21.821Z,3.30
2018-08-23T00:02:21.802Z,3.30
2018-08-23T00:03:21.811Z,3.30
2018-08-23T00:04:21.789Z,3.10
2018-08-23T00:05:21.799Z,3.20
2018-08-23T00:06:21.802Z,3.20
2018-08-23T00:07:21.799Z,3.30
2018-08-23T00:08:21.783Z,3.30
2018-08-23T00:09:21.783Z,3.30
2018-08-23T00:10:21.807Z,3.20
2018-08-23T00:11:21.771Z,3.50
2018-08-23T00:12:21.772Z,3.30
2018-08-23T00:13:21.771Z,3.30
2018-08-23T00:14:21.775Z,3.40
2018-08-23T00:15:21.776Z,3.20
2018-08-23T00:16:21.762Z,3.00
2018-08-23T00:17:21.767Z,3.20
2018-08-23T00:18:21.749Z,3.00
2018-08-23T00:19:21.761Z,3.00
2018-08-23T00:20:21.743Z,3.20
2018-08-23T00:21:21.741Z,3.30
2018-08-23T00:22:21.726Z,3.30
2018-08-23T00:23:21.742Z,3.40
2018-08-23T00:24:21.743Z,3.30
2018-08-23T00:25:21.733Z,3.40
2018-08-23T00:26:21.733Z,3.30
2018-08-23T00:27:21.733Z,3.50
2018-08-23T00:28:21.723Z,3.20
2018-08-23T00:29:21.719Z,3.20
2018-08-23T00:30:21.720Z,3.40
2018-08-23T00:31:21.709Z,3.10
2018-08-23T00:32:21.707Z,3.40
2018-08-23T00:33:21.716Z,3.40
2018-08-23T00:34:21.707Z,3.20
2018-08-23T00:35:21.701Z,3.20
2018-08-23T00:36:21.692Z,3.30
2018-08-23T00:37:21.701Z,3.20
2018-08-23T00:38:21.702Z,3.30
2018-08-23T00:39:21.689Z,3.20
2018-08-23T00:40:21.689Z,3.20
2018-08-23T00:41:21.673Z,3.50
2018-08-23T00:42:21.672Z,3.10
2018-08-23T00:43:21.672Z,3.30
2018-08-23T00:44:21.674Z,3.10
2018-08-23T00:45:21.673Z,3.10
2018-08-23T00:46:21.667Z,3.30
2018-08-23T00:47:21.658Z,3.30
2018-08-23T00:48:21.660Z,3.10
2018-08-23T00:49:21.659Z,3.40
2018-08-23T00:50:21.659Z,2.90
2018-08-23T00:51:21.653Z,3.40
2018-08-23T00:52:21.642Z,3.00
2018-08-23T00:53:21.643Z,3.40
2018-08-23T00:54:21.660Z,3.40
2018-08-23T00:55:21.643Z,3.30
2018-08-23T00:56:21.633Z,3.20
2018-08-23T00:57:21.625Z,3.30
2018-08-23T00:58:21.629Z,3.20
2018-08-23T00:59:21.619Z,3.10
2018-08-23T01:00:21.613Z,3.20
2018-08-23T01:01:21.622Z,3.50
2018-08-23T01:02:21.617Z,3.20
2018-08-23T01:03:21.615Z,3.00
2018-08-23T01:04:21.609Z,3.10
2018-08-23T01:05:21.604Z,3.20
2018-08-23T01:06:21.603Z,3.00
2018-08-23T01:07:21.595Z,3.20
2018-08-23T01:08:21.596Z,3.10
2018-08-23T01:09:21.590Z,3.20
2018-08-23T01:10:21.583Z,3.10
2018-08-23T01:11:21.589Z,3.00
2018-08-23T01:12:21.578Z,3.00
2018-08-23T01:13:21.582Z,3.10
2018-08-23T01:14:21.563Z,3.20
2018-08-23T01:15:21.559Z,3.10
2018-08-23T01:16:21.559Z,2.90
2018-08-23T01:17:21.564Z,3.40
2018-08-23T01:18:21.552Z,3.20
2018-08-23T01:19:21.557Z,3.10
2018-08-23T01:20:21.550Z,3.20
2018-08-23T01:21:21.553Z,2.80
2018-08-23T01:22:21.553Z,3.40
2018-08-23T01:23:21.540Z,3.10
2018-08-23T01:24:21.538Z,3.00
2018-08-23T01:25:21.543Z,3.20
2018-08-23T01:26:21.543Z,3.20
2018-08-23T01:27:21.548Z,3.00
2018-08-23T01:28:21.522Z,3.20
2018-08-23T01:29:21.535Z,3.30
2018-08-23T01:30:21.518Z,3.30
2018-08-23T01:31:21.510Z,3.20
2018-08-23T01:32:21.516Z,3.10
2018-08-23T01:33:21.507Z,3.20
2018-08-23T01:34:21.508Z,3.10
2018-08-23T01:35:21.518Z,3.30
2018-08-23T01:36:21.509Z,3.20
2018-08-23T01:37:21.504Z,3.20
2018-08-23T01:38:21.500Z,3.30
2018-08-23T01:39:21.493Z,3.20
2018-08-23T01:40:21.485Z,3.20
2018-08-23T01:41:21.484Z,3.40
2018-08-23T01:42:21.474Z,3.20
2018-08-23T01:43:21.488Z,3.20
2018-08-23T01:44:21.474Z,3.10
2018-08-23T01:45:21.470Z,3.10
2018-08-23T01:46:21.474Z,3.00
2018-08-23T01:47:21.473Z,3.10
2018-08-23T01:48:21.454Z,2.90
2018-08-23T01:49:21.464Z,3.10
2018-08-23T01:50:21.455Z,3.30
2018-08-23T01:51:21.445Z,3.10
2018-08-23T01:52:21.449Z,3.20
2018-08-23T01:53:21.449Z,3.10
2018-08-23T01:54:21.453Z,3.20
2018-08-23T01:55:21.440Z,2.80
2018-08-23T01:56:21.430Z,3.10
2018-08-23T01:57:21.430Z,3.00
2018-08-23T01:58:21.434Z,3.20
2018-08-23T01:59:21.413Z,3.10
2018-08-23T02:00:21.428Z,3.20
2018-08-23T02:01:21.419Z,3.30
2018-08-23T02:02:21.413Z,3.10
2018-08-23T02:03:21.408Z,3.20
2018-08-23T02:04:21.400Z,3.00
2018-08-23T02:05:21.405Z,3.50
2018-08-23T02:06:21.410Z,3.10
2018-08-23T02:07:21.403Z,3.10
2018-08-23T02:08:21.398Z,3.10
2018-08-23T02:09:21.385Z,3.00
2018-08-23T02:10:21.393Z,3.30
2018-08-23T02:11:21.390Z,3.20
2018-08-23T02:12:21.385Z,3.10
2018-08-23T02:13:21.384Z,3.10
2018-08-23T02:14:21.370Z,3.30
2018-08-23T02:15:21.376Z,3.00
2018-08-23T02:16:21.384Z,3.00
2018-08-23T02:17:21.359Z,3.20
2018-08-23T02:18:21.375Z,3.20
2018-08-23T02:19:21.360Z,3.20
2018-08-23T02:20:21.350Z,3.10
2018-08-23T02:21:21.355Z,3.30
2018-08-23T02:22:21.345Z,3.40
2018-08-23T02:23:21.345Z,3.20
2018-08-23T02:24:21.345Z,3.30
2018-08-23T02:25:21.349Z,3.10
2018-08-23T02:26:21.331Z,3.20
2018-08-23T02:27:21.326Z,3.10
2018-08-23T02:28:21.341Z,3.10
2018-08-23T02:29:21.334Z,3.40
2018-08-23T02:30:21.325Z,3.20
2018-08-23T02:31:21.325Z,3.00
2018-08-23T02:32:21.318Z,3.10
2018-08-23T02:33:21.319Z,3.00
2018-08-23T02:34:21.306Z,3.20
2018-08-23T02:35:21.310Z,3.20
2018-08-23T02:36:21.309Z,3.40
2018-08-23T02:37:21.292Z,3.10
2018-08-23T02:38:21.307Z,3.10
2018-08-23T02:39:21.294Z,2.90
2018-08-23T02:40:21.296Z,3.00
2018-08-23T02:41:21.290Z,3.00
2018-08-23T02:42:21.286Z,3.00
2018-08-23T02:43:21.294Z,2.90
2018-08-23T02:44:21.285Z,3.10
2018-08-23T02:45:21.275Z,3.20
2018-08-23T02:46:21.274Z,3.20
2018-08-23T02:47:21.275Z,3.00
2018-08-23T02:48:21.253Z,3.30
2018-08-23T02:49:21.260Z,3.20
2018-08-23T02:50:21.270Z,3.00
2018-08-23T02:51:21.255Z,3.00
2018-08-23T02:52:21.246Z,3.00
2018-08-23T02:53:21.259Z,3.00
2018-08-23T02:54:21.245Z,3.20
2018-08-23T02:55:21.240Z,3.20
2018-08-23T02:56:21.240Z,3.10
2018-08-23T02:57:21.235Z,3.10
2018-08-23T02:58:21.232Z,3.00
2018-08-23T02:59:21.229Z,3.10
2018-08-23T03:00:21.232Z,3.00
2018-08-23T03:01:21.224Z,3.10
2018-08-23T03:02:21.217Z,3.20
2018-08-23T03:03:21.236Z,3.00
2018-08-23T03:04:21.220Z,2.90
2018-08-23T03:05:21.217Z,3.10
2018-08-23T03:06:21.217Z,3.10
2018-08-23T03:07:21.208Z,3.10
2018-08-23T03:08:21.197Z,3.40
2018-08-23T03:09:21.212Z,3.10
2018-08-23T03:10:21.192Z,2.90
2018-08-23T03:11:21.190Z,3.00
2018-08-23T03:12:21.195Z,3.20
2018-08-23T03:13:21.182Z,3.20
2018-08-23T03:14:21.181Z,3.10
2018-08-23T03:15:21.177Z,3.10
2018-08-23T03:16:21.186Z,3.00
2018-08-23T03:17:21.170Z,3.20
2018-08-23T03:18:21.176Z,3.20
2018-08-23T03:19:21.168Z,3.20
2018-08-23T03:20:21.157Z,3.10
2018-08-23T03:21:21.165Z,3.20
2018-08-23T03:22:21.151Z,3.10
2018-08-23T03:23:21.152Z,2.80
2018-08-23T03:24:21.142Z,3.00
2018-08-23T03:25:21.145Z,3.10
2018-08-23T03:26:21.132Z,3.20
2018-08-23T03:27:21.135Z,2.80
2018-08-23T03:28:21.136Z,3.10
2018-08-23T03:29:21.133Z,3.20
2018-08-23T03:30:21.132Z,3.10
2018-08-23T03:31:21.121Z,2.80
2018-08-23T03:32:21.124Z,3.10
2018-08-23T03:33:21.117Z,3.10
2018-08-23T03:34:21.116Z,3.00
2018-08-23T03:35:21.110Z,2.90
2018-08-23T03:36:21.121Z,3.00
2018-08-23T03:37:21.100Z,2.90
2018-08-23T03:38:21.093Z,3.10
2018-08-23T03:39:21.102Z,3.00
2018-08-23T03:40:21.095Z,3.00
2018-08-23T03:41:21.096Z,3.20
2018-08-23T03:42:21.081Z,3.10
2018-08-23T03:43:21.090Z,3.20
2018-08-23T03:44:21.081Z,3.10
2018-08-23T03:45:21.081Z,3.20
2018-08-23T03:46:21.081Z,3.10
2018-08-23T03:47:21.076Z,3.00
2018-08-23T03:48:21.073Z,2.90
2018-08-23T03:49:21.073Z,3.10
2018-08-23T03:50:21.065Z,3.10
2018-08-23T03:51:21.059Z,3.00
2018-08-23T03:52:21.060Z,3.00
2018-08-23T03:53:21.049Z,2.90
2018-08-23T03:54:21.061Z,3.00
2018-08-23T03:55:21.042Z,3.00
2018-08-23T03:56:21.065Z,3.20
2018-08-23T03:57:21.044Z,3.20
2018-08-23T03:58:21.044Z,3.00
2018-08-23T03:59:21.032Z,3.10
2018-08-23T04:00:21.037Z,3.00
2018-08-23T04:01:21.026Z,3.30
2018-08-23T04:02:21.026Z,3.30
2018-08-23T04:03:21.024Z,2.90
2018-08-23T04:04:21.009Z,3.40
2018-08-23T04:05:21.008Z,3.30
2018-08-23T04:06:21.012Z,3.20
2018-08-23T04:07:21.007Z,3.00
2018-08-23T04:08:20.998Z,3.50
2018-08-23T04:09:20.996Z,3.10
2018-08-23T04:10:21.008Z,3.20
2018-08-23T04:11:20.992Z,3.10
2018-08-23T04:12:20.997Z,3.00
2018-08-23T04:13:20.986Z,3.00
2018-08-23T04:14:21.001Z,3.30
2018-08-23T04:15:21.019Z,3.00
2018-08-23T04:16:20.972Z,3.20
2018-08-23T04:17:20.967Z,3.30
2018-08-23T04:18:20.963Z,3.30
2018-08-23T04:19:20.968Z,3.80
2018-08-23T04:20:20.961Z,3.30
2018-08-23T04:21:20.962Z,4.10
2018-08-23T04:22:20.962Z,4.10
2018-08-23T04:23:20.946Z,3.70
2018-08-23T04:24:20.939Z,3.70
2018-08-23T04:25:20.946Z,3.50
2018-08-23T04:26:20.941Z,3.20
2018-08-23T04:27:20.943Z,3.40
2018-08-23T04:28:20.933Z,3.20
2018-08-23T04:29:20.941Z,3.40
2018-08-23T04:30:20.929Z,3.20
2018-08-23T04:31:20.928Z,3.70
2018-08-23T04:32:20.926Z,3.60
2018-08-23T04:33:20.928Z,3.70
2018-08-23T04:34:20.913Z,3.60
2018-08-23T04:35:20.911Z,3.20
2018-08-23T04:36:20.908Z,3.30
2018-08-23T04:37:20.897Z,3.50
2018-08-23T04:38:20.897Z,3.40
2018-08-23T04:39:20.896Z,3.60
2018-08-23T04:40:20.898Z,3.50
2018-08-23T04:41:20.895Z,3.40
2018-08-23T04:42:20.891Z,3.50
2018-08-23T04:43:20.887Z,3.40
2018-08-23T04:44:20.889Z,3.50
2018-08-23T04:45:20.874Z,3.80
2018-08-23T04:46:20.873Z,3.40
2018-08-23T04:47:20.868Z,3.70
2018-08-23T04:48:20.884Z,4.00
2018-08-23T04:49:20.863Z,3.40
2018-08-23T04:50:20.863Z,3.80
2018-08-23T04:51:20.862Z,3.90
2018-08-23T04:52:20.847Z,3.70
2018-08-23T04:53:20.853Z,3.50
2018-08-23T04:54:20.852Z,3.60
2018-08-23T04:55:20.848Z,3.80
2018-08-23T04:56:20.838Z,3.70
2018-08-23T04:57:20.842Z,3.60
2018-08-23T04:58:20.839Z,3.70
2018-08-23T04:59:20.829Z,4.00
2018-08-23T05:00:20.834Z,4.00
2018-08-23T05:01:20.829Z,3.70
2018-08-23T05:02:20.817Z,3.80
2018-08-23T05:03:20.824Z,4.10
2018-08-23T05:04:20.834Z,3.90
2018-08-23T05:05:20.809Z,3.80
2018-08-23T05:06:20.813Z,3.90
2018-08-23T05:07:20.814Z,3.60
2018-08-23T05:08:20.812Z,3.70
2018-08-23T05:09:20.797Z,3.90
2018-08-23T05:10:20.794Z,3.80
2018-08-23T05:11:20.788Z,3.80
2018-08-23T05:12:20.784Z,3.60
2018-08-23T05:13:20.792Z,3.80
2018-08-23T05:14:20.778Z,3.70
2018-08-23T05:15:20.778Z,4.00
2018-08-23T05:16:20.778Z,3.80
2018-08-23T05:17:20.774Z,3.90
2018-08-23T05:18:20.767Z,3.90
2018-08-23T05:19:20.763Z,3.60
2018-08-23T05:20:20.783Z,3.70
2018-08-23T05:21:20.749Z,4.10
2018-08-23T05:22:20.765Z,3.80
2018-08-23T05:23:20.850Z,3.90
2018-08-23T05:24:20.755Z,3.80
2018-08-23T05:25:20.747Z,3.90
2018-08-23T05:26:20.730Z,4.20
2018-08-23T05:27:20.753Z,4.00
2018-08-23T05:28:20.732Z,3.90
2018-08-23T05:29:20.730Z,4.30
2018-08-23T05:30:20.738Z,4.10
2018-08-23T05:31:20.732Z,3.80
2018-08-23T05:32:20.720Z,4.00
2018-08-23T05:33:20.715Z,3.90
2018-08-23T05:34:20.725Z,4.20
2018-08-23T05:35:20.713Z,3.70
2018-08-23T05:36:20.712Z,4.20
2018-08-23T05:37:20.703Z,3.90
2018-08-23T05:38:20.698Z,3.90
2018-08-23T05:39:20.705Z,4.10
2018-08-23T05:40:20.692Z,3.90
2018-08-23T05:41:20.692Z,3.90
2018-08-23T05:42:20.683Z,3.80
2018-08-23T05:43:20.687Z,4.00
2018-08-23T05:44:20.673Z,4.00
2018-08-23T05:45:20.674Z,4.00
2018-08-23T05:46:20.677Z,4.00
2018-08-23T05:47:20.660Z,4.10
2018-08-23T05:48:20.667Z,3.90
2018-08-23T05:49:20.678Z,4.00
2018-08-23T05:50:20.671Z,4.00
2018-08-23T05:51:20.659Z,4.10
2018-08-23T05:52:20.659Z,4.30
2018-08-23T05:53:20.650Z,4.00
2018-08-23T05:54:20.648Z,3.90
2018-08-23T05:55:20.642Z,3.90
2018-08-23T05:56:20.639Z,4.10
2018-08-23T05:57:20.639Z,3.90
2018-08-23T05:58:20.629Z,4.00
2018-08-23T05:59:20.631Z,4.20
2018-08-23T06:00:20.630Z,3.80
2018-08-23T06:01:20.632Z,4.00
2018-08-23T06:02:20.617Z,4.30
2018-08-23T06:03:20.617Z,4.20
2018-08-23T06:04:20.623Z,4.40
2018-08-23T06:05:20.615Z,4.20
2018-08-23T06:06:20.608Z,3.90
2018-08-23T06:07:20.599Z,4.00
2018-08-23T06:08:20.694Z,4.40
2018-08-23T06:09:20.594Z,4.20
2018-08-23T06:10:20.594Z,4.20
2018-08-23T06:11:20.589Z,3.90
2018-08-23T06:12:20.588Z,4.20
2018-08-23T06:13:20.593Z,4.10
2018-08-23T06:14:20.696Z,4.30
2018-08-23T06:15:20.578Z,4.00
2018-08-23T06:16:20.573Z,4.20
2018-08-23T06:17:20.570Z,4.30
2018-08-23T06:18:20.561Z,4.10
2018-08-23T06:19:20.574Z,4.10
2018-08-23T06:20:20.568Z,4.20
2018-08-23T06:21:20.558Z,4.00
2018-08-23T06:22:20.549Z,3.90
2018-08-23T06:23:20.551Z,4.10
2018-08-23T06:24:20.543Z,4.20
2018-08-23T06:25:20.551Z,3.90
2018-08-23T06:26:20.545Z,4.00
2018-08-23T06:27:20.544Z,4.20
2018-08-23T06:28:20.535Z,4.20
2018-08-23T06:29:20.537Z,3.70
2018-08-23T06:30:20.526Z,3.80
2018-08-23T06:31:20.520Z,4.00
2018-08-23T06:32:20.528Z,3.90
2018-08-23T06:33:20.661Z,3.80
2018-08-23T06:34:20.515Z,4.00
2018-08-23T06:35:20.512Z,3.70
2018-08-23T06:36:20.504Z,4.00
2018-08-23T06:37:20.494Z,3.80
2018-08-23T06:38:20.504Z,3.80
2018-08-23T06:39:20.495Z,3.80
2018-08-23T06:40:20.497Z,3.90
2018-08-23T06:41:20.513Z,4.10
2018-08-23T06:42:20.493Z,3.80
2018-08-23T06:43:20.485Z,3.80
2018-08-23T06:44:20.496Z,3.70
2018-08-23T06:45:20.495Z,3.80
2018-08-23T06:46:20.470Z,4.10
2018-08-23T06:47:20.471Z,4.00
2018-08-23T06:48:20.468Z,3.70
2018-08-23T06:49:20.466Z,3.80
2018-08-23T06:50:20.474Z,3.80
2018-08-23T06:51:20.593Z,4.20
2018-08-23T06:52:20.451Z,4.00
2018-08-23T06:53:20.458Z,3.80
2018-08-23T06:54:20.444Z,3.70
2018-08-23T06:55:20.444Z,3.80
2018-08-23T06:56:20.444Z,4.10
2018-08-23T06:57:20.449Z,3.80
2018-08-23T06:58:20.436Z,3.70
2018-08-23T06:59:20.439Z,3.90
2018-08-23T07:00:20.427Z,4.00
2018-08-23T07:01:20.449Z,4.00
2018-08-23T07:02:20.420Z,3.70
2018-08-23T07:03:20.420Z,3.70
2018-08-23T07:04:20.425Z,3.60
2018-08-23T07:05:20.445Z,3.80
2018-08-23T07:06:20.410Z,3.70
2018-08-23T07:07:20.407Z,3.70
2018-08-23T07:08:20.413Z,3.70
2018-08-23T07:09:20.401Z,3.90
2018-08-23T07:10:20.399Z,4.00
2018-08-23T07:11:20.395Z,3.60
2018-08-23T07:12:20.393Z,3.60
2018-08-23T07:13:20.394Z,3.70
2018-08-23T07:14:20.385Z,3.80
2018-08-23T07:15:20.383Z,3.90
2018-08-23T07:16:20.376Z,3.50
2018-08-23T07:17:20.459Z,3.50
2018-08-23T07:18:20.387Z,3.60
2018-08-23T07:19:20.371Z,3.80
2018-08-23T07:20:20.370Z,3.80
2018-08-23T07:21:20.360Z,3.80
2018-08-23T07:22:20.360Z,3.70
2018-08-23T07:23:20.357Z,3.60
2018-08-23T07:24:20.426Z,4.00
2018-08-23T07:25:20.355Z,3.70
2018-08-23T07:26:20.405Z,3.70
2018-08-23T07:27:20.342Z,3.80
2018-08-23T07:28:20.337Z,3.70
2018-08-23T07:29:20.337Z,3.80
2018-08-23T07:30:20.335Z,3.70
2018-08-23T07:31:20.329Z,3.90
2018-08-23T07:32:20.350Z,4.00
2018-08-23T07:33:20.341Z,3.70
2018-08-23T07:34:20.327Z,3.80
2018-08-23T07:35:20.322Z,4.00
2018-08-23T07:36:20.326Z,3.80
2018-08-23T07:37:20.314Z,3.90
2018-08-23T07:38:20.310Z,4.10
2018-08-23T07:39:20.387Z,3.60
2018-08-23T07:40:20.318Z,3.80
2018-08-23T07:41:20.302Z,3.60
2018-08-23T07:42:20.309Z,3.50
2018-08-23T07:43:20.296Z,3.60
2018-08-23T07:44:20.285Z,4.00
2018-08-23T07:45:20.281Z,3.50
2018-08-23T07:46:20.281Z,3.60
2018-08-23T07:47:20.285Z,3.50
2018-08-23T07:48:20.276Z,3.70
2018-08-23T07:49:20.290Z,3.60
2018-08-23T07:50:20.275Z,3.70
2018-08-23T07:51:20.290Z,3.70
2018-08-23T07:52:20.276Z,3.60
2018-08-23T07:53:20.364Z,3.70
2018-08-23T07:54:20.266Z,3.70
2018-08-23T07:55:20.259Z,3.50
2018-08-23T07:56:20.255Z,3.60
2018-08-23T07:57:20.253Z,4.00
2018-08-23T07:58:20.247Z,3.80
2018-08-23T07:59:20.245Z,3.80
2018-08-23T08:00:20.250Z,3.80
2018-08-23T08:01:20.260Z,3.90
2018-08-23T08:02:20.234Z,4.00
2018-08-23T08:03:20.225Z,3.90
2018-08-23T08:04:20.242Z,3.90
2018-08-23T08:05:20.232Z,3.80
2018-08-23T08:06:20.225Z,3.80
2018-08-23T08:07:20.226Z,3.90
2018-08-23T08:08:20.215Z,4.00
2018-08-23T08:09:20.222Z,3.80
2018-08-23T08:10:20.206Z,3.80
2018-08-23T08:11:20.211Z,3.80
2018-08-23T08:12:20.202Z,3.80
2018-08-23T08:13:20.197Z,4.10
2018-08-23T08:14:20.241Z,3.60
2018-08-23T08:15:20.378Z,3.80
2018-08-23T08:16:20.205Z,3.70
2018-08-23T08:17:20.186Z,4.00
2018-08-23T08:18:20.198Z,3.70
2018-08-23T08:19:20.183Z,3.80
2018-08-23T08:20:20.185Z,3.90
2018-08-23T08:21:20.173Z,4.00
2018-08-23T08:22:20.171Z,4.00
2018-08-23T08:23:20.170Z,4.00
2018-08-23T08:24:20.184Z,3.80
2018-08-23T08:25:20.157Z,3.90
2018-08-23T08:26:20.182Z,4.00
2018-08-23T08:27:20.184Z,4.10
2018-08-23T08:28:20.164Z,4.20
2018-08-23T08:29:20.151Z,3.80
2018-08-23T08:30:20.162Z,3.80
2018-08-23T08:31:20.163Z,4.00
2018-08-23T08:32:20.147Z,3.70
2018-08-23T08:33:20.191Z,3.90
2018-08-23T08:34:20.148Z,3.90
2018-08-23T08:35:20.143Z,3.80
2018-08-23T08:36:20.166Z,3.70
2018-08-23T08:37:20.131Z,3.90
2018-08-23T08:38:20.139Z,3.90
2018-08-23T08:39:20.123Z,4.00
2018-08-23T08:40:20.131Z,3.70
2018-08-23T08:41:20.128Z,3.60
2018-08-23T08:42:20.126Z,3.50
2018-08-23T08:43:20.111Z,4.00
2018-08-23T08:44:20.117Z,4.00
2018-08-23T08:45:20.111Z,3.90
2018-08-23T08:46:20.105Z,3.70
2018-08-23T08:47:20.103Z,3.80
2018-08-23T08:48:20.112Z,4.00
2018-08-23T08:49:20.101Z,3.90
2018-08-23T08:50:20.159Z,4.00
2018-08-23T08:51:20.089Z,4.20
2018-08-23T08:52:20.098Z,4.00
2018-08-23T08:53:20.086Z,4.20
2018-08-23T08:54:20.094Z,4.00
2018-08-23T08:55:20.089Z,3.90
2018-08-23T08:56:20.077Z,3.90
2018-08-23T08:57:20.138Z,3.70
2018-08-23T08:58:20.066Z,3.90
2018-08-23T08:59:20.068Z,3.70
2018-08-23T09:00:20.068Z,3.80
2018-08-23T09:01:20.068Z,4.10
2018-08-23T09:02:20.053Z,3.90
2018-08-23T09:03:20.052Z,4.10
2018-08-23T09:04:20.054Z,3.90
2018-08-23T09:05:20.059Z,4.00
2018-08-23T09:06:20.044Z,3.80
2018-08-23T09:07:20.042Z,3.90
2018-08-23T09:08:20.052Z,3.80
2018-08-23T09:09:20.032Z,4.10
2018-08-23T09:10:20.033Z,4.10
2018-08-23T09:11:20.033Z,4.00
2018-08-23T09:12:20.029Z,3.90
2018-08-23T09:13:20.025Z,3.90
2018-08-23T09:14:20.028Z,3.90
2018-08-23T09:15:20.023Z,3.80
2018-08-23T09:16:20.017Z,3.90
2018-08-23T09:17:20.020Z,4.00
2018-08-23T09:18:20.007Z,3.80
2018-08-23T09:19:20.026Z,3.90
2018-08-23T09:20:20.018Z,3.90
2018-08-23T09:21:20.013Z,3.80
2018-08-23T09:22:19.999Z,3.90
2018-08-23T09:23:20.002Z,3.80
2018-08-23T09:24:19.989Z,3.90
2018-08-23T09:25:20.046Z,3.70
2018-08-23T09:26:19.988Z,3.50
2018-08-23T09:27:20.065Z,3.90
2018-08-23T09:28:19.991Z,3.80
2018-08-23T09:29:19.978Z,3.90
2018-08-23T09:30:19.978Z,3.90
2018-08-23T09:31:19.970Z,3.80
2018-08-23T09:32:19.982Z,3.90
2018-08-23T09:33:19.988Z,3.80
2018-08-23T09:34:19.973Z,3.80
2018-08-23T09:35:19.963Z,3.70
2018-08-23T09:36:19.953Z,3.80
2018-08-23T09:37:19.955Z,4.00
2018-08-23T09:38:19.955Z,3.80
2018-08-23T09:39:19.949Z,3.80
2018-08-23T09:40:19.953Z,3.70
2018-08-23T09:41:19.940Z,3.70
2018-08-23T09:42:19.945Z,3.90
2018-08-23T09:43:19.944Z,3.60
2018-08-23T09:44:19.943Z,4.00
2018-08-23T09:45:19.942Z,3.80
2018-08-23T09:46:19.932Z,3.80
2018-08-23T09:47:19.944Z,3.80
2018-08-23T09:48:19.926Z,3.80
2018-08-23T09:49:19.922Z,3.60
2018-08-23T09:50:19.938Z,3.70
2018-08-23T09:51:19.923Z,3.70
2018-08-23T09:52:19.951Z,3.70
2018-08-23T09:53:19.945Z,3.50
2018-08-23T09:54:19.903Z,3.60
2018-08-23T09:55:19.919Z,3.60
2018-08-23T09:56:19.907Z,3.80
2018-08-23T09:57:19.904Z,3.80
2018-08-23T09:58:19.893Z,3.60
2018-08-23T09:59:19.901Z,3.50
2018-08-23T10:00:19.888Z,3.60
2018-08-23T10:01:19.887Z,3.70
2018-08-23T10:02:19.888Z,3.80
2018-08-23T10:03:19.888Z,3.50
2018-08-23T10:04:19.901Z,3.90
2018-08-23T10:05:19.874Z,3.80
2018-08-23T10:06:19.884Z,3.80
2018-08-23T10:07:19.864Z,3.90
2018-08-23T10:08:19.869Z,3.70
2018-08-23T10:09:19.865Z,3.60
2018-08-23T10:10:19.859Z,3.70
2018-08-23T10:11:19.940Z,3.60
2018-08-23T10:12:19.852Z,3.50
2018-08-23T10:13:19.857Z,3.60
2018-08-23T10:14:19.853Z,3.70
2018-08-23T10:15:19.852Z,3.70
2018-08-23T10:16:19.844Z,3.80
2018-08-23T10:17:19.844Z,3.50
2018-08-23T10:18:19.843Z,3.30
2018-08-23T10:19:19.842Z,3.60
2018-08-23T10:20:19.847Z,3.40
2018-08-23T10:21:19.836Z,3.40
2018-08-23T10:22:19.829Z,3.80
2018-08-23T10:23:19.814Z,3.50
2018-08-23T10:24:19.820Z,3.50
2018-08-23T10:25:19.822Z,3.50
2018-08-23T10:26:19.814Z,3.70
2018-08-23T10:27:19.822Z,3.60
2018-08-23T10:28:19.808Z,3.40
2018-08-23T10:29:19.818Z,3.60
2018-08-23T10:30:19.807Z,3.60
2018-08-23T10:31:19.818Z,3.50
2018-08-23T10:32:19.832Z,3.70
2018-08-23T10:33:19.794Z,3.70
2018-08-23T10:34:19.789Z,3.70
2018-08-23T10:35:19.788Z,3.80
2018-08-23T10:36:19.797Z,3.70
2018-08-23T10:37:19.786Z,3.60
2018-08-23T10:38:19.843Z,3.50
2018-08-23T10:39:19.784Z,3.60
2018-08-23T10:40:19.805Z,3.60
2018-08-23T10:41:19.783Z,3.60
2018-08-23T10:42:19.768Z,3.70
2018-08-23T10:43:19.770Z,3.60
2018-08-23T10:44:19.831Z,3.50
2018-08-23T10:45:19.766Z,3.30
2018-08-23T10:46:19.769Z,3.40
2018-08-23T10:47:19.759Z,3.70
2018-08-23T10:48:19.776Z,3.50
2018-08-23T10:49:19.778Z,3.60
2018-08-23T10:50:19.743Z,3.70
2018-08-23T10:51:19.750Z,3.40
2018-08-23T10:52:19.747Z,3.20
2018-08-23T10:53:19.747Z,3.70
2018-08-23T10:54:19.743Z,3.50
2018-08-23T10:55:19.728Z,3.50
2018-08-23T10:56:19.775Z,3.50
2018-08-23T10:57:19.734Z,3.50
2018-08-23T10:58:19.720Z,3.30
2018-08-23T10:59:19.724Z,3.30
2018-08-23T11:00:19.713Z,3.50
2018-08-23T11:01:19.719Z,3.40
2018-08-23T11:02:19.707Z,3.30
2018-08-23T11:03:19.729Z,3.70
2018-08-23T11:04:19.733Z,3.60
2018-08-23T11:05:19.724Z,3.60
2018-08-23T11:06:19.704Z,3.30
2018-08-23T11:07:19.704Z,3.60
2018-08-23T11:08:19.692Z,3.30
2018-08-23T11:09:19.705Z,3.40
2018-08-23T11:10:19.688Z,3.40
2018-08-23T11:11:19.684Z,3.60
2018-08-23T11:12:19.685Z,3.50
2018-08-23T11:13:19.675Z,3.30
2018-08-23T11:14:19.678Z,3.60
2018-08-23T11:15:19.674Z,3.20
2018-08-23T11:16:19.683Z,3.10
2018-08-23T11:17:19.676Z,3.40
2018-08-23T11:18:19.663Z,3.50
2018-08-23T11:19:19.663Z,3.20
2018-08-23T11:20:19.655Z,3.30
2018-08-23T11:21:19.673Z,3.40
2018-08-23T11:22:19.649Z,3.50
2018-08-23T11:23:19.649Z,3.30
2018-08-23T11:24:19.658Z,3.10
2018-08-23T11:25:19.644Z,3.30
2018-08-23T11:26:19.665Z,3.10
2018-08-23T11:27:19.640Z,3.50
2018-08-23T11:28:19.639Z,3.40
2018-08-23T11:29:19.629Z,3.20
2018-08-23T11:30:19.644Z,3.40
2018-08-23T11:31:19.639Z,3.30
2018-08-23T11:32:19.632Z,3.20
2018-08-23T11:33:19.625Z,3.30
2018-08-23T11:34:19.636Z,3.40
2018-08-23T11:35:19.616Z,3.40
2018-08-23T11:36:19.629Z,3.30
2018-08-23T11:37:19.611Z,3.10
2018-08-23T11:38:19.624Z,3.40
2018-08-23T11:39:19.621Z,2.90
2018-08-23T11:40:19.596Z,3.50
2018-08-23T11:41:19.614Z,3.10
2018-08-23T11:42:19.613Z,3.20
2018-08-23T11:43:19.597Z,3.10
2018-08-23T11:44:19.586Z,3.20
2018-08-23T11:45:19.594Z,3.20
2018-08-23T11:46:19.581Z,3.40
2018-08-23T11:47:19.607Z,3.10
2018-08-23T11:48:19.584Z,3.20
2018-08-23T11:49:19.590Z,3.40
2018-08-23T11:50:19.574Z,3.20
2018-08-23T11:51:19.584Z,3.20
2018-08-23T11:52:19.589Z,3.10
2018-08-23T11:53:19.673Z,3.00
2018-08-23T11:54:19.555Z,3.00
2018-08-23T11:55:19.563Z,3.00
2018-08-23T11:56:19.556Z,3.20
2018-08-23T11:57:19.547Z,3.30
2018-08-23T11:58:19.552Z,3.20
2018-08-23T11:59:19.576Z,3.20
2018-08-23T12:00:19.548Z,3.30
2018-08-23T12:01:19.545Z,3.10
2018-08-23T12:02:19.533Z,3.20
2018-08-23T12:03:19.536Z,3.10
2018-08-23T12:04:19.541Z,3.00
2018-08-23T12:05:19.536Z,3.20
2018-08-23T12:06:19.531Z,3.20
2018-08-23T12:07:19.532Z,3.10
2018-08-23T12:08:19.540Z,3.10
2018-08-23T12:09:19.514Z,3.00
2018-08-23T12:10:19.517Z,3.00
2018-08-23T12:11:19.539Z,3.10
2018-08-23T12:12:19.506Z,3.10
2018-08-23T12:13:19.519Z,3.20
2018-08-23T12:14:19.503Z,2.80
2018-08-23T12:15:19.499Z,3.20
2018-08-23T12:16:19.510Z,3.20
2018-08-23T12:17:19.516Z,2.90
2018-08-23T12:18:19.516Z,3.10
2018-08-23T12:19:19.495Z,3.00
2018-08-23T12:20:19.496Z,2.90
2018-08-23T12:21:20.611Z,2.90
2018-08-23T12:22:19.489Z,3.00
2018-08-23T12:23:19.472Z,3.10
2018-08-23T12:24:19.479Z,2.80
2018-08-23T12:25:19.489Z,3.10
2018-08-23T12:26:19.499Z,3.00
2018-08-23T12:27:19.468Z,3.10
2018-08-23T12:28:19.464Z,3.00
2018-08-23T12:29:19.450Z,2.90
2018-08-23T12:30:19.460Z,3.10
2018-08-23T12:31:19.447Z,3.10
2018-08-23T12:32:19.452Z,2.90
2018-08-23T12:33:19.452Z,3.20
2018-08-23T12:34:19.474Z,3.10
2018-08-23T12:35:19.476Z,3.10
2018-08-23T12:36:19.437Z,2.80
2018-08-23T12:37:19.426Z,2.90
2018-08-23T12:38:19.436Z,3.10
2018-08-23T12:39:19.447Z,3.00
2018-08-23T12:40:19.431Z,3.10
2018-08-23T12:41:19.431Z,3.00
2018-08-23T12:42:19.470Z,2.80
2018-08-23T12:43:19.441Z,2.80
2018-08-23T12:44:19.420Z,2.90
2018-08-23T12:45:19.411Z,2.90
2018-08-23T12:46:19.449Z,2.90
2018-08-23T12:47:19.422Z,2.90
2018-08-23T12:48:19.411Z,2.80
2018-08-23T12:49:19.425Z,2.80
2018-08-23T12:50:19.407Z,3.00
2018-08-23T12:51:19.400Z,2.80
2018-08-23T12:52:19.397Z,2.90
2018-08-23T12:53:19.407Z,2.80
2018-08-23T12:54:19.404Z,2.80
2018-08-23T12:55:19.386Z,2.80
2018-08-23T12:56:19.415Z,2.80
2018-08-23T12:57:19.380Z,2.90
2018-08-23T12:58:19.419Z,3.00
2018-08-23T12:59:19.384Z,2.80
2018-08-23T13:00:19.370Z,2.90
2018-08-23T13:01:19.443Z,2.70
2018-08-23T13:02:19.464Z,2.90
2018-08-23T13:03:19.397Z,2.70
2018-08-23T13:04:19.391Z,3.00
2018-08-23T13:05:19.366Z,3.20
2018-08-23T13:06:19.358Z,3.00
2018-08-23T13:07:19.361Z,3.00
2018-08-23T13:08:19.408Z,2.90
2018-08-23T13:09:19.362Z,2.90
2018-08-23T13:10:19.343Z,2.90
2018-08-23T13:11:19.339Z,3.00
2018-08-23T13:12:19.353Z,2.80
2018-08-23T13:13:19.345Z,2.80
2018-08-23T13:14:19.321Z,2.80
2018-08-23T13:15:19.327Z,2.90
2018-08-23T13:16:19.330Z,2.90
2018-08-23T13:17:19.325Z,2.80
2018-08-23T13:18:19.321Z,2.90